aviador You're here:

KGRF Decoded Metar

FORT LEWIS in WA, USA
Report Time2018-01-17 05:58:00
UTC Time2018-01-17 06:49:25
Flight Rules vfr VFR
Wind200° at 03 kt
W.Decomp.*RWY 15: 2.5 kt HW 1.7 kt RCW
W.Rank200° ranks 9
Current wind is below 200° avg. (7.1)
Visibility9999 m
Phenomena:N/A
Clouds:N/A
CeilingNone
Temp06°C (ISA -8)
Dew Point06°C (100% RH)
AAT4.0°C
QNH1021 hPa
Density Alt-856 ft
Elevation302 ft
Report Wrong Elevation
Raw Report
KGRF 170558Z AUTO 20003KT 10SM CLR 06/06 A3016 RMK AO2 SLP218
T00590059 10095 20056 57020 $=

Extra information for KGRF:More info

Metar Taf Metar & Taf Last 4 Metars F.Rules Stats Wind Profile Meteogram Temp Stats Airport Information Weather charts Add Link Nearby VenuesMetar ALERT Operation Metar Decoded Social comments

AIRNAV info for KGRF